createdAt,value
2023-02-02T00:01:15.763Z,82.24
2023-02-02T00:03:43.667Z,82.70
2023-02-02T00:06:11.554Z,82.40
2023-02-02T00:08:39.345Z,81.99
2023-02-02T00:11:07.161Z,81.65
2023-02-02T00:13:34.706Z,82.13
2023-02-02T00:16:27.546Z,83.17
2023-02-02T00:18:57.482Z,83.41
2023-02-02T00:21:25.601Z,83.35
2023-02-02T00:23:53.310Z,83.74
2023-02-02T00:26:21.597Z,83.96
2023-02-02T00:28:49.111Z,84.16
2023-02-02T00:31:16.690Z,83.88
2023-02-02T00:33:48.850Z,83.99
2023-02-02T00:36:17.464Z,84.54
2023-02-02T00:38:46.715Z,84.91
2023-02-02T00:41:14.423Z,85.79
2023-02-02T00:43:42.161Z,85.66
2023-02-02T00:46:14.601Z,86.62
2023-02-02T00:48:42.121Z,86.50
2023-02-02T00:51:10.989Z,86.83
2023-02-02T00:53:38.449Z,87.12
2023-02-02T00:56:06.170Z,87.57
2023-02-02T00:58:34.170Z,87.53
2023-02-02T01:01:01.824Z,87.82
2023-02-02T01:03:29.363Z,87.75
2023-02-02T01:05:57.161Z,87.70
2023-02-02T01:08:25.737Z,87.71
2023-02-02T01:10:53.218Z,87.50
2023-02-02T01:13:23.139Z,87.70
2023-02-02T01:15:55.819Z,87.63
2023-02-02T01:18:23.670Z,87.93
2023-02-02T01:21:02.363Z,88.42
2023-02-02T01:23:30.890Z,88.28
2023-02-02T01:26:00.145Z,88.48
2023-02-02T01:28:28.979Z,88.18
2023-02-02T01:30:57.944Z,88.47
2023-02-02T01:33:25.921Z,87.98
2023-02-02T01:35:55.527Z,88.57
2023-02-02T01:38:24.845Z,88.48
2023-02-02T01:40:55.221Z,88.57
2023-02-02T01:43:50.364Z,88.56
2023-02-02T01:46:23.670Z,88.46
2023-02-02T01:49:07.163Z,88.00
2023-02-02T01:52:00.239Z,88.63
2023-02-02T01:54:39.925Z,88.21
2023-02-02T01:57:23.057Z,88.11
2023-02-02T01:59:53.111Z,88.07
2023-02-02T02:02:21.074Z,87.67
2023-02-02T02:04:50.477Z,86.99
2023-02-02T02:07:19.162Z,86.55
2023-02-02T02:09:47.873Z,86.25
2023-02-02T02:12:16.947Z,86.84
2023-02-02T02:15:07.283Z,86.30
2023-02-02T02:17:47.664Z,86.42
2023-02-02T02:20:39.911Z,86.73
2023-02-02T02:23:54.261Z,86.95
2023-02-02T02:26:58.587Z,86.56
2023-02-02T02:29:53.548Z,86.50
2023-02-02T02:33:00.683Z,85.86
2023-02-02T02:35:37.941Z,85.63
2023-02-02T02:38:21.669Z,84.90
2023-02-02T02:41:00.399Z,85.84
2023-02-02T02:43:33.251Z,85.02
2023-02-02T02:46:01.869Z,85.73
2023-02-02T02:48:29.904Z,85.84
2023-02-02T02:51:43.847Z,86.04
2023-02-02T02:54:24.677Z,85.53
2023-02-02T02:57:07.232Z,85.67
2023-02-02T02:59:59.293Z,85.26
2023-02-02T03:02:31.447Z,84.51
2023-02-02T03:04:59.101Z,84.02
2023-02-02T03:07:34.129Z,83.71
2023-02-02T03:10:04.393Z,83.50
2023-02-02T03:12:31.941Z,82.59
2023-02-02T03:14:59.369Z,82.18
2023-02-02T03:17:28.145Z,82.08
2023-02-02T03:19:55.791Z,81.81
2023-02-02T03:22:23.273Z,81.25
2023-02-02T03:24:51.052Z,81.95
2023-02-02T03:27:18.509Z,81.45
2023-02-02T03:29:46.016Z,81.31
2023-02-02T03:32:13.740Z,81.32
2023-02-02T03:34:41.219Z,81.58
2023-02-02T03:37:08.826Z,81.82
2023-02-02T03:39:37.177Z,82.42
2023-02-02T03:42:05.037Z,82.04
2023-02-02T03:44:32.552Z,82.57
2023-02-02T03:47:00.283Z,82.62
2023-02-02T03:49:27.849Z,82.77
2023-02-02T03:51:55.285Z,82.71
2023-02-02T03:54:23.045Z,81.90
2023-02-02T03:56:50.432Z,82.74
2023-02-02T03:59:17.882Z,83.29
2023-02-02T04:01:45.611Z,84.26
2023-02-02T04:04:13.369Z,84.73
2023-02-02T04:06:40.846Z,85.53
2023-02-02T04:09:09.018Z,86.43
2023-02-02T04:11:36.792Z,87.35
2023-02-02T04:14:04.494Z,87.98
2023-02-02T04:16:34.896Z,87.26
2023-02-02T04:19:02.733Z,87.32
2023-02-02T04:21:30.404Z,87.70
2023-02-02T04:23:57.912Z,87.33
2023-02-02T04:26:26.289Z,87.62
2023-02-02T04:28:54.082Z,87.83
2023-02-02T04:31:21.640Z,89.00
2023-02-02T04:33:49.454Z,90.22
2023-02-02T04:36:16.920Z,91.07
2023-02-02T04:38:44.693Z,91.71
2023-02-02T04:41:14.619Z,92.23
2023-02-02T04:43:42.386Z,92.25
2023-02-02T04:46:09.932Z,91.96
2023-02-02T04:48:38.597Z,91.66
2023-02-02T04:51:08.758Z,91.66
2023-02-02T04:53:36.261Z,90.82
2023-02-02T04:56:09.045Z,90.67
2023-02-02T04:58:36.479Z,90.00
2023-02-02T05:01:19.439Z,90.04
2023-02-02T05:03:47.723Z,88.19
2023-02-02T05:06:16.794Z,86.92
2023-02-02T05:08:44.418Z,86.67
2023-02-02T05:11:14.592Z,87.10
2023-02-02T05:13:47.371Z,86.50
2023-02-02T05:16:15.683Z,87.00
2023-02-02T05:18:48.436Z,86.97
2023-02-02T05:21:15.952Z,87.12
2023-02-02T05:23:43.732Z,87.65
2023-02-02T05:26:20.941Z,88.42
2023-02-02T05:28:48.743Z,88.96
2023-02-02T05:31:16.645Z,89.04
2023-02-02T05:33:44.373Z,90.18
2023-02-02T05:36:12.951Z,91.01
2023-02-02T05:38:40.366Z,90.57
2023-02-02T05:41:07.880Z,91.47
2023-02-02T05:43:35.624Z,91.47
2023-02-02T05:46:03.355Z,92.21
2023-02-02T05:48:31.554Z,92.42
2023-02-02T05:51:08.010Z,93.06
2023-02-02T05:53:35.399Z,93.61
2023-02-02T05:56:03.498Z,93.17
2023-02-02T05:58:30.953Z,93.66
2023-02-02T06:00:58.457Z,93.49
2023-02-02T06:03:26.329Z,94.31
2023-02-02T06:05:53.909Z,94.55
2023-02-02T06:08:21.366Z,93.88
2023-02-02T06:10:49.422Z,94.14
2023-02-02T06:13:16.945Z,94.25
2023-02-02T06:15:44.467Z,93.82
2023-02-02T06:18:12.474Z,94.34
2023-02-02T06:20:40.061Z,94.20
2023-02-02T06:23:07.534Z,94.09
2023-02-02T06:25:35.430Z,94.50
2023-02-02T06:28:03.039Z,94.96
2023-02-02T06:30:30.585Z,95.05
2023-02-02T06:33:00.037Z,95.18
2023-02-02T06:35:27.764Z,95.29
2023-02-02T06:37:55.315Z,94.98
2023-02-02T06:40:23.075Z,95.30
2023-02-02T06:42:59.509Z,95.32
2023-02-02T06:45:30.028Z,95.36
2023-02-02T06:48:03.645Z,95.01
2023-02-02T06:50:31.439Z,94.98
2023-02-02T06:52:58.898Z,95.30
2023-02-02T06:55:26.709Z,95.06
2023-02-02T06:57:58.834Z,95.79
2023-02-02T07:00:27.964Z,95.71
2023-02-02T07:02:56.488Z,95.71
2023-02-02T07:05:24.679Z,95.33
2023-02-02T07:07:52.635Z,94.92
2023-02-02T07:11:14.155Z,95.28
2023-02-02T07:13:07.969Z,94.62
2023-02-02T07:15:38.143Z,94.30
2023-02-02T07:18:06.362Z,93.91
2023-02-02T07:20:34.214Z,92.94
2023-02-02T07:23:04.731Z,93.48
2023-02-02T07:25:33.437Z,92.13
2023-02-02T07:28:01.175Z,91.79
2023-02-02T07:30:29.979Z,91.51
2023-02-02T07:32:58.301Z,91.19
2023-02-02T07:35:26.644Z,91.21
2023-02-02T07:37:55.869Z,90.55
2023-02-02T07:40:23.754Z,90.48
2023-02-02T07:42:51.390Z,90.53
2023-02-02T07:45:27.021Z,89.68
2023-02-02T07:48:00.838Z,90.18
2023-02-02T07:50:30.869Z,88.04
2023-02-02T07:53:01.172Z,88.35
2023-02-02T07:55:29.367Z,87.75
2023-02-02T07:57:58.981Z,86.86
2023-02-02T08:00:26.954Z,86.12
2023-02-02T08:02:54.791Z,86.29
2023-02-02T08:05:23.098Z,85.45
2023-02-02T08:07:50.800Z,85.21
2023-02-02T08:10:18.663Z,84.10
2023-02-02T08:12:46.110Z,83.92
2023-02-02T08:15:13.598Z,83.78
2023-02-02T08:17:45.521Z,83.59
2023-02-02T08:20:13.752Z,82.38
2023-02-02T08:22:41.736Z,82.20
2023-02-02T08:25:09.559Z,82.81
2023-02-02T08:27:38.035Z,82.22
2023-02-02T08:30:06.435Z,79.91
2023-02-02T08:32:33.896Z,81.05
2023-02-02T08:35:01.359Z,81.52
2023-02-02T08:37:29.083Z,79.48
2023-02-02T08:39:56.629Z,79.43
2023-02-02T08:42:24.042Z,80.75
2023-02-02T08:46:02.230Z,79.19
2023-02-02T08:47:39.268Z,78.23
2023-02-02T08:50:07.325Z,78.21
2023-02-02T08:52:34.840Z,78.29
2023-02-02T08:55:04.407Z,79.19
2023-02-02T08:57:32.707Z,76.09
2023-02-02T09:00:00.205Z,76.30
2023-02-02T09:02:27.888Z,76.21
2023-02-02T09:04:55.764Z,75.76
2023-02-02T09:07:23.194Z,75.57
2023-02-02T09:09:52.676Z,74.79
2023-02-02T09:12:20.489Z,74.78
2023-02-02T09:14:48.103Z,73.70
2023-02-02T09:17:15.548Z,74.59
2023-02-02T09:19:43.434Z,73.73
2023-02-02T09:22:11.211Z,74.58
2023-02-02T09:24:38.763Z,73.05
2023-02-02T09:27:06.615Z,73.16
2023-02-02T09:29:34.235Z,74.03
2023-02-02T09:32:01.765Z,72.65
2023-02-02T09:34:29.690Z,72.02
2023-02-02T09:36:57.196Z,72.07
2023-02-02T09:39:25.062Z,72.34
2023-02-02T09:42:19.767Z,73.12
2023-02-02T09:45:01.853Z,71.98
2023-02-02T09:47:47.803Z,72.49
2023-02-02T09:50:34.477Z,72.37
2023-02-02T09:53:18.847Z,71.32
2023-02-02T09:55:50.211Z,70.64
2023-02-02T09:58:33.806Z,70.85
2023-02-02T10:01:10.430Z,71.81
2023-02-02T10:03:57.370Z,70.98
2023-02-02T10:06:39.809Z,70.54
2023-02-02T10:09:26.501Z,68.84
2023-02-02T10:12:00.631Z,69.17
2023-02-02T10:14:37.010Z,68.53
2023-02-02T10:17:37.541Z,68.01
2023-02-02T10:20:19.073Z,65.86
2023-02-02T10:22:47.897Z,65.73
2023-02-02T10:25:17.122Z,65.02
2023-02-02T10:28:06.747Z,63.80
2023-02-02T10:30:46.150Z,63.44
2023-02-02T10:33:31.350Z,64.99
2023-02-02T10:36:27.365Z,64.69
2023-02-02T10:39:11.334Z,64.26
2023-02-02T10:41:46.918Z,62.77
2023-02-02T10:44:30.049Z,63.34
2023-02-02T10:47:04.010Z,64.35
2023-02-02T10:49:31.981Z,62.52
2023-02-02T10:52:06.523Z,63.04
2023-02-02T10:55:13.016Z,61.59
2023-02-02T10:58:06.424Z,63.37
2023-02-02T11:00:40.581Z,62.41
2023-02-02T11:03:11.362Z,61.68
2023-02-02T11:05:57.507Z,61.57
2023-02-02T11:08:33.946Z,60.46
2023-02-02T11:11:33.155Z,57.33
2023-02-02T11:14:15.214Z,57.48
2023-02-02T11:16:45.466Z,57.21
2023-02-02T11:19:22.176Z,58.29
2023-02-02T11:21:59.156Z,57.01
2023-02-02T11:24:49.711Z,55.16
2023-02-02T11:27:21.229Z,52.42
2023-02-02T11:29:53.000Z,53.54
2023-02-02T11:32:37.538Z,52.93
2023-02-02T11:35:08.657Z,51.55
2023-02-02T11:37:37.953Z,52.14
2023-02-02T11:40:31.936Z,52.44
2023-02-02T11:43:04.697Z,53.86
2023-02-02T11:45:42.752Z,53.13
2023-02-02T11:48:22.488Z,53.74
2023-02-02T11:50:53.904Z,54.28
2023-02-02T11:53:31.100Z,55.16
2023-02-02T11:56:09.826Z,56.37
2023-02-02T11:58:48.565Z,56.81
2023-02-02T12:01:25.782Z,54.96
2023-02-02T12:03:59.335Z,54.12
2023-02-02T12:06:32.837Z,54.14
2023-02-02T12:09:09.904Z,53.41
2023-02-02T12:11:43.262Z,53.50
2023-02-02T12:14:29.429Z,52.75
2023-02-02T12:17:08.853Z,53.47
2023-02-02T12:19:53.464Z,53.09
2023-02-02T12:22:29.789Z,52.26
2023-02-02T12:25:01.198Z,52.00
2023-02-02T12:27:49.931Z,52.18
2023-02-02T12:30:17.552Z,51.66
2023-02-02T12:32:50.801Z,51.97
2023-02-02T12:35:21.503Z,51.99
2023-02-02T12:38:18.791Z,52.91
2023-02-02T12:41:01.889Z,51.61
2023-02-02T12:43:38.538Z,50.36
2023-02-02T12:46:33.841Z,50.26
2023-02-02T12:49:25.379Z,50.53
2023-02-02T12:51:58.325Z,49.04
2023-02-02T12:55:10.079Z,49.11
2023-02-02T12:58:01.253Z,51.44
2023-02-02T13:00:39.520Z,53.24
2023-02-02T13:03:23.752Z,53.92
2023-02-02T13:06:00.172Z,54.77
2023-02-02T13:08:38.125Z,54.87
2023-02-02T13:11:31.318Z,55.37
2023-02-02T13:14:33.661Z,55.19
2023-02-02T13:17:12.983Z,55.69
2023-02-02T13:19:45.461Z,54.92
2023-02-02T13:22:19.968Z,56.14
2023-02-02T13:24:51.040Z,56.50
2023-02-02T13:27:21.382Z,57.15
2023-02-02T13:29:57.506Z,58.49
2023-02-02T13:32:35.173Z,58.28
2023-02-02T13:35:39.439Z,58.48
2023-02-02T13:38:15.036Z,59.85
2023-02-02T13:40:44.161Z,59.67
2023-02-02T13:43:17.689Z,59.57
2023-02-02T13:46:07.173Z,60.20
2023-02-02T13:49:13.460Z,60.16
2023-02-02T13:52:19.471Z,59.02
2023-02-02T13:55:21.123Z,58.78
2023-02-02T13:58:19.893Z,60.11
2023-02-02T14:00:54.582Z,58.34
2023-02-02T14:03:42.560Z,59.76
2023-02-02T14:06:28.752Z,60.07
2023-02-02T14:09:05.627Z,59.69
2023-02-02T14:11:36.334Z,59.29
2023-02-02T14:14:38.884Z,59.55
2023-02-02T14:17:17.288Z,59.56
2023-02-02T14:19:59.219Z,59.78
2023-02-02T14:22:48.383Z,61.25
2023-02-02T14:25:34.208Z,60.97
2023-02-02T14:28:04.250Z,60.99
2023-02-02T14:30:38.766Z,61.46
2023-02-02T14:33:21.371Z,61.63
2023-02-02T14:35:49.110Z,61.69
2023-02-02T14:38:37.825Z,62.59
2023-02-02T14:41:13.051Z,62.87
2023-02-02T14:43:50.975Z,63.61
2023-02-02T14:46:53.996Z,63.77
2023-02-02T14:49:25.915Z,63.81
2023-02-02T14:51:58.175Z,63.96
2023-02-02T14:54:31.364Z,64.60
2023-02-02T14:57:03.191Z,64.63
2023-02-02T14:59:37.434Z,64.12
2023-02-02T15:02:19.889Z,64.59
2023-02-02T15:04:48.350Z,65.54
2023-02-02T15:07:24.940Z,64.46
2023-02-02T15:09:58.187Z,65.21
2023-02-02T15:12:44.645Z,65.55
2023-02-02T15:15:25.667Z,66.27
2023-02-02T15:18:19.495Z,66.45
2023-02-02T15:20:49.711Z,66.83
2023-02-02T15:23:40.688Z,67.75
2023-02-02T15:26:29.332Z,67.45
2023-02-02T15:29:16.023Z,66.88
2023-02-02T15:31:47.359Z,67.22
2023-02-02T15:34:21.830Z,67.52
2023-02-02T15:36:54.069Z,68.23
2023-02-02T15:39:41.269Z,68.30
2023-02-02T15:42:55.067Z,68.24
2023-02-02T15:45:48.334Z,69.33
2023-02-02T15:48:34.795Z,69.07
2023-02-02T15:51:06.916Z,69.62
2023-02-02T15:53:48.843Z,70.09
2023-02-02T15:56:30.527Z,70.41
2023-02-02T15:58:59.784Z,70.31
2023-02-02T16:01:31.862Z,70.48
2023-02-02T16:04:24.993Z,70.79
2023-02-02T16:06:53.874Z,71.04
2023-02-02T16:09:27.417Z,71.23
2023-02-02T16:11:55.153Z,71.18
2023-02-02T16:14:23.833Z,71.43
2023-02-02T16:16:51.507Z,71.41
2023-02-02T16:19:23.300Z,71.45
2023-02-02T16:22:04.447Z,72.24
2023-02-02T16:24:36.182Z,71.90
2023-02-02T16:27:07.279Z,71.85
2023-02-02T16:29:35.318Z,71.93
2023-02-02T16:32:05.095Z,71.90
2023-02-02T16:34:41.669Z,71.87
2023-02-02T16:37:32.094Z,72.52
2023-02-02T16:40:26.842Z,72.10
2023-02-02T16:43:07.583Z,72.31
2023-02-02T16:45:45.283Z,72.31
2023-02-02T16:48:45.411Z,72.89
2023-02-02T16:51:15.928Z,73.09
2023-02-02T16:53:49.279Z,73.52
2023-02-02T16:56:39.993Z,73.07
2023-02-02T16:59:28.591Z,73.89
2023-02-02T17:02:00.460Z,73.27
2023-02-02T17:04:31.088Z,73.37
2023-02-02T17:07:13.641Z,72.94
2023-02-02T17:09:42.838Z,72.47
2023-02-02T17:12:32.536Z,72.68
2023-02-02T17:15:23.577Z,72.86
2023-02-02T17:17:52.068Z,72.33
2023-02-02T17:20:20.683Z,72.55
2023-02-02T17:22:52.435Z,72.03
2023-02-02T17:25:30.234Z,72.67
2023-02-02T17:28:00.169Z,71.32
2023-02-02T17:30:29.394Z,70.81
2023-02-02T17:32:57.382Z,71.22
2023-02-02T17:35:29.764Z,70.64
2023-02-02T17:38:02.852Z,71.14
2023-02-02T17:40:30.434Z,70.66
2023-02-02T17:42:57.835Z,71.37
2023-02-02T17:45:36.559Z,71.00
2023-02-02T17:48:05.260Z,71.47
2023-02-02T17:50:34.003Z,71.32
2023-02-02T17:53:01.478Z,71.58
2023-02-02T17:55:40.564Z,72.22
2023-02-02T17:58:10.411Z,72.18
2023-02-02T18:00:38.856Z,72.44
2023-02-02T18:03:22.673Z,72.30
2023-02-02T18:05:50.522Z,72.24
2023-02-02T18:08:18.490Z,72.97
2023-02-02T18:10:46.157Z,72.59
2023-02-02T18:13:16.298Z,73.34
2023-02-02T18:15:44.404Z,72.74
2023-02-02T18:18:12.592Z,72.56
2023-02-02T18:20:45.156Z,73.08
2023-02-02T18:23:13.753Z,73.16
2023-02-02T18:25:41.845Z,73.12
2023-02-02T18:28:10.579Z,72.79
2023-02-02T18:30:39.456Z,73.36
2023-02-02T18:33:11.273Z,73.03
2023-02-02T18:35:42.878Z,73.50
2023-02-02T18:38:11.013Z,73.95
2023-02-02T18:40:39.031Z,73.75
2023-02-02T18:43:06.889Z,74.14
2023-02-02T18:45:35.689Z,74.34
2023-02-02T18:48:04.582Z,75.00
2023-02-02T18:50:32.008Z,74.77
2023-02-02T18:52:59.869Z,74.56
2023-02-02T18:55:28.070Z,75.04
2023-02-02T18:57:56.075Z,74.66
2023-02-02T19:00:23.922Z,74.76
2023-02-02T19:02:52.076Z,74.95
2023-02-02T19:05:38.730Z,74.95
2023-02-02T19:08:06.790Z,75.30
2023-02-02T19:10:34.545Z,75.31
2023-02-02T19:13:19.758Z,75.82
2023-02-02T19:15:49.871Z,75.46
2023-02-02T19:18:24.073Z,75.34
2023-02-02T19:20:52.620Z,75.88
2023-02-02T19:23:25.875Z,75.84
2023-02-02T19:25:56.096Z,75.92
2023-02-02T19:28:26.484Z,76.04
2023-02-02T19:30:56.876Z,76.42
2023-02-02T19:33:39.492Z,76.61
2023-02-02T19:36:16.648Z,76.43
2023-02-02T19:38:45.290Z,76.30
2023-02-02T19:41:24.230Z,76.02
2023-02-02T19:43:58.491Z,76.84
2023-02-02T19:46:28.132Z,77.08
2023-02-02T19:49:13.417Z,77.31
2023-02-02T19:51:43.383Z,77.19
2023-02-02T19:54:33.090Z,77.74
2023-02-02T19:57:13.819Z,77.74
2023-02-02T19:59:45.378Z,78.34
2023-02-02T20:02:30.691Z,78.94
2023-02-02T20:05:03.668Z,78.61
2023-02-02T20:07:31.413Z,79.20
2023-02-02T20:10:16.215Z,79.14
2023-02-02T20:12:43.896Z,78.75
2023-02-02T20:15:35.448Z,78.56
2023-02-02T20:18:14.258Z,79.14
2023-02-02T20:20:44.600Z,79.25
2023-02-02T20:23:29.716Z,79.57
2023-02-02T20:25:59.141Z,79.80
2023-02-02T20:28:33.430Z,80.58
2023-02-02T20:31:05.515Z,80.48
2023-02-02T20:33:33.694Z,81.13
2023-02-02T20:36:21.867Z,82.03
2023-02-02T20:38:49.733Z,81.90
2023-02-02T20:41:18.815Z,82.06
2023-02-02T20:43:46.445Z,81.97
2023-02-02T20:46:15.282Z,82.59
2023-02-02T20:48:43.365Z,82.91
2023-02-02T20:51:11.193Z,83.01
2023-02-02T20:53:41.040Z,83.43
2023-02-02T20:56:08.771Z,83.57
2023-02-02T20:58:36.326Z,84.00
2023-02-02T21:01:05.517Z,84.14
2023-02-02T21:03:33.430Z,84.12
2023-02-02T21:06:00.856Z,84.01
2023-02-02T21:08:28.882Z,84.68
2023-02-02T21:10:56.999Z,84.73
2023-02-02T21:13:24.655Z,84.55
2023-02-02T21:15:59.078Z,84.98
2023-02-02T21:18:26.961Z,84.78
2023-02-02T21:20:54.547Z,85.03
2023-02-02T21:23:22.133Z,85.38
2023-02-02T21:25:49.793Z,85.90
2023-02-02T21:28:17.841Z,86.47
2023-02-02T21:30:45.924Z,86.77
2023-02-02T21:33:13.481Z,86.76
2023-02-02T21:35:41.297Z,86.83
2023-02-02T21:38:15.252Z,87.23
2023-02-02T21:40:43.044Z,87.54
2023-02-02T21:43:18.383Z,87.90
2023-02-02T21:45:51.424Z,87.87
2023-02-02T21:48:38.767Z,87.85
2023-02-02T21:51:25.296Z,88.34
2023-02-02T21:53:52.973Z,88.61
2023-02-02T21:56:41.841Z,88.61
2023-02-02T21:59:17.708Z,89.19
2023-02-02T22:01:48.139Z,89.49
2023-02-02T22:04:25.951Z,89.72
2023-02-02T22:07:00.470Z,89.80
2023-02-02T22:09:37.076Z,89.71
2023-02-02T22:12:20.946Z,89.77
2023-02-02T22:14:51.263Z,90.24
2023-02-02T22:17:39.833Z,90.67
2023-02-02T22:20:26.996Z,90.89
2023-02-02T22:22:54.565Z,90.73
2023-02-02T22:25:32.476Z,91.02
2023-02-02T22:28:05.041Z,91.25
2023-02-02T22:30:32.929Z,91.24
2023-02-02T22:33:00.347Z,91.75
2023-02-02T22:35:27.753Z,91.91
2023-02-02T22:37:55.800Z,91.74
2023-02-02T22:40:23.445Z,91.30
2023-02-02T22:42:56.771Z,91.70
2023-02-02T22:45:25.138Z,91.83
2023-02-02T22:47:53.419Z,92.45
2023-02-02T22:50:23.943Z,92.45
2023-02-02T22:52:52.443Z,92.52
2023-02-02T22:55:20.549Z,92.17
2023-02-02T22:57:48.396Z,91.94
2023-02-02T23:00:19.620Z,92.30
2023-02-02T23:02:47.503Z,92.18
2023-02-02T23:05:17.356Z,92.66
2023-02-02T23:07:46.102Z,92.93
2023-02-02T23:10:16.259Z,93.02
2023-02-02T23:12:44.301Z,93.31
2023-02-02T23:15:13.010Z,93.17
2023-02-02T23:17:40.758Z,93.17
2023-02-02T23:20:11.501Z,93.13
2023-02-02T23:22:39.759Z,93.15
2023-02-02T23:25:07.701Z,93.38
2023-02-02T23:27:35.141Z,93.42
2023-02-02T23:30:03.967Z,93.84
2023-02-02T23:32:31.553Z,93.69
2023-02-02T23:34:59.006Z,93.48
2023-02-02T23:37:26.762Z,93.40
2023-02-02T23:39:54.406Z,93.46
2023-02-02T23:42:21.939Z,93.62
2023-02-02T23:44:49.775Z,93.42
2023-02-02T23:47:17.419Z,93.41
2023-02-02T23:49:45.493Z,93.38
2023-02-02T23:52:13.616Z,93.98
2023-02-02T23:54:41.103Z,93.73
2023-02-02T23:57:08.642Z,94.29
2023-02-02T23:59:36.490Z,94.13
